sensor_id;sensor_type;location;lat;lon;timestamp;P1;durP1;ratioP1;P2;durP2;ratioP2
6131;SDS011;3097;42.692;23.278;2023-02-28T00:01:31;16.83;;;9.40;;
6131;SDS011;3097;42.692;23.278;2023-02-28T00:03:57;15.00;;;9.43;;
6131;SDS011;3097;42.692;23.278;2023-02-28T00:06:23;16.10;;;10.33;;
6131;SDS011;3097;42.692;23.278;2023-02-28T00:08:49;16.03;;;9.93;;
6131;SDS011;3097;42.692;23.278;2023-02-28T00:11:15;15.03;;;9.03;;
6131;SDS011;3097;42.692;23.278;2023-02-28T00:13:42;18.03;;;9.37;;
6131;SDS011;3097;42.692;23.278;2023-02-28T00:16:13;15.70;;;9.97;;
6131;SDS011;3097;42.692;23.278;2023-02-28T00:18:40;15.73;;;9.93;;
6131;SDS011;3097;42.692;23.278;2023-02-28T00:21:06;15.90;;;9.33;;
6131;SDS011;3097;42.692;23.278;2023-02-28T00:23:33;14.80;;;8.73;;
6131;SDS011;3097;42.692;23.278;2023-02-28T00:25:59;15.03;;;9.30;;
6131;SDS011;3097;42.692;23.278;2023-02-28T00:28:24;14.97;;;8.63;;
6131;SDS011;3097;42.692;23.278;2023-02-28T00:30:50;16.20;;;9.23;;
6131;SDS011;3097;42.692;23.278;2023-02-28T00:33:16;15.50;;;8.93;;
6131;SDS011;3097;42.692;23.278;2023-02-28T00:35:42;14.27;;;8.53;;
6131;SDS011;3097;42.692;23.278;2023-02-28T00:38:07;15.20;;;8.63;;
6131;SDS011;3097;42.692;23.278;2023-02-28T00:40:32;14.53;;;8.53;;
6131;SDS011;3097;42.692;23.278;2023-02-28T00:42:58;14.90;;;9.23;;
6131;SDS011;3097;42.692;23.278;2023-02-28T00:45:23;15.60;;;10.03;;
6131;SDS011;3097;42.692;23.278;2023-02-28T00:47:49;16.57;;;10.17;;
6131;SDS011;3097;42.692;23.278;2023-02-28T00:50:16;19.73;;;10.63;;
6131;SDS011;3097;42.692;23.278;2023-02-28T00:52:42;19.67;;;11.30;;
6131;SDS011;3097;42.692;23.278;2023-02-28T00:55:10;19.67;;;11.47;;
6131;SDS011;3097;42.692;23.278;2023-02-28T00:57:35;20.90;;;11.77;;
6131;SDS011;3097;42.692;23.278;2023-02-28T01:00:01;21.93;;;11.43;;
6131;SDS011;3097;42.692;23.278;2023-02-28T01:02:27;20.70;;;11.47;;
6131;SDS011;3097;42.692;23.278;2023-02-28T01:04:52;24.07;;;11.17;;
6131;SDS011;3097;42.692;23.278;2023-02-28T01:07:17;20.07;;;11.10;;
6131;SDS011;3097;42.692;23.278;2023-02-28T01:09:43;22.57;;;11.60;;
6131;SDS011;3097;42.692;23.278;2023-02-28T01:12:08;20.77;;;12.07;;
6131;SDS011;3097;42.692;23.278;2023-02-28T01:14:34;18.20;;;10.23;;
6131;SDS011;3097;42.692;23.278;2023-02-28T01:17:00;20.40;;;11.30;;
6131;SDS011;3097;42.692;23.278;2023-02-28T01:19:26;23.27;;;10.90;;
6131;SDS011;3097;42.692;23.278;2023-02-28T01:21:51;20.87;;;10.67;;
6131;SDS011;3097;42.692;23.278;2023-02-28T01:24:17;19.40;;;10.27;;
6131;SDS011;3097;42.692;23.278;2023-02-28T01:26:42;19.17;;;10.93;;
6131;SDS011;3097;42.692;23.278;2023-02-28T01:29:08;18.20;;;9.90;;
6131;SDS011;3097;42.692;23.278;2023-02-28T01:31:33;20.13;;;11.00;;
6131;SDS011;3097;42.692;23.278;2023-02-28T01:33:58;22.63;;;10.07;;
6131;SDS011;3097;42.692;23.278;2023-02-28T01:36:24;19.20;;;9.80;;
6131;SDS011;3097;42.692;23.278;2023-02-28T01:38:50;16.53;;;9.97;;
6131;SDS011;3097;42.692;23.278;2023-02-28T01:41:18;18.63;;;9.80;;
6131;SDS011;3097;42.692;23.278;2023-02-28T01:46:12;22.53;;;12.23;;
6131;SDS011;3097;42.692;23.278;2023-02-28T01:48:40;19.80;;;10.93;;
6131;SDS011;3097;42.692;23.278;2023-02-28T01:51:27;19.83;;;10.17;;
6131;SDS011;3097;42.692;23.278;2023-02-28T01:54:00;20.13;;;10.57;;
6131;SDS011;3097;42.692;23.278;2023-02-28T01:56:30;21.77;;;10.10;;
6131;SDS011;3097;42.692;23.278;2023-02-28T01:59:01;19.80;;;10.70;;
6131;SDS011;3097;42.692;23.278;2023-02-28T02:01:27;22.50;;;10.67;;
6131;SDS011;3097;42.692;23.278;2023-02-28T02:03:54;25.13;;;11.53;;
6131;SDS011;3097;42.692;23.278;2023-02-28T02:06:27;22.97;;;11.13;;
6131;SDS011;3097;42.692;23.278;2023-02-28T02:11:29;24.70;;;11.47;;
6131;SDS011;3097;42.692;23.278;2023-02-28T02:16:42;31.73;;;12.50;;
6131;SDS011;3097;42.692;23.278;2023-02-28T02:19:16;25.67;;;11.93;;
6131;SDS011;3097;42.692;23.278;2023-02-28T02:30:56;30.47;;;13.47;;
6131;SDS011;3097;42.692;23.278;2023-02-28T02:36:35;32.10;;;12.93;;
6131;SDS011;3097;42.692;23.278;2023-02-28T02:39:21;28.87;;;12.63;;
6131;SDS011;3097;42.692;23.278;2023-02-28T02:42:02;30.37;;;12.93;;
6131;SDS011;3097;42.692;23.278;2023-02-28T02:47:22;30.10;;;12.13;;
6131;SDS011;3097;42.692;23.278;2023-02-28T02:49:53;27.80;;;13.07;;
6131;SDS011;3097;42.692;23.278;2023-02-28T02:52:23;34.40;;;15.83;;
6131;SDS011;3097;42.692;23.278;2023-02-28T02:55:01;27.97;;;13.27;;
6131;SDS011;3097;42.692;23.278;2023-02-28T02:57:33;22.83;;;11.40;;
6131;SDS011;3097;42.692;23.278;2023-02-28T03:00:03;31.50;;;12.63;;
6131;SDS011;3097;42.692;23.278;2023-02-28T03:02:33;26.57;;;12.97;;
6131;SDS011;3097;42.692;23.278;2023-02-28T03:05:02;30.27;;;13.20;;
6131;SDS011;3097;42.692;23.278;2023-02-28T03:07:31;41.97;;;15.37;;
6131;SDS011;3097;42.692;23.278;2023-02-28T03:09:57;29.13;;;13.93;;
6131;SDS011;3097;42.692;23.278;2023-02-28T03:12:57;38.60;;;15.70;;
6131;SDS011;3097;42.692;23.278;2023-02-28T03:15:22;32.57;;;14.17;;
6131;SDS011;3097;42.692;23.278;2023-02-28T03:22:56;34.53;;;13.40;;
6131;SDS011;3097;42.692;23.278;2023-02-28T03:25:30;32.87;;;13.23;;
6131;SDS011;3097;42.692;23.278;2023-02-28T03:30:45;27.90;;;12.90;;
6131;SDS011;3097;42.692;23.278;2023-02-28T03:33:20;30.23;;;12.93;;
6131;SDS011;3097;42.692;23.278;2023-02-28T03:35:54;26.97;;;12.10;;
6131;SDS011;3097;42.692;23.278;2023-02-28T03:38:28;29.40;;;12.87;;
6131;SDS011;3097;42.692;23.278;2023-02-28T03:41:04;27.97;;;11.20;;
6131;SDS011;3097;42.692;23.278;2023-02-28T03:43:55;25.73;;;11.73;;
6131;SDS011;3097;42.692;23.278;2023-02-28T03:46:25;34.13;;;13.30;;
6131;SDS011;3097;42.692;23.278;2023-02-28T03:48:58;27.27;;;12.07;;
6131;SDS011;3097;42.692;23.278;2023-02-28T03:51:30;28.80;;;12.10;;
6131;SDS011;3097;42.692;23.278;2023-02-28T03:53:58;28.70;;;11.97;;
6131;SDS011;3097;42.692;23.278;2023-02-28T03:56:31;28.50;;;13.10;;
6131;SDS011;3097;42.692;23.278;2023-02-28T03:59:06;33.00;;;13.10;;
6131;SDS011;3097;42.692;23.278;2023-02-28T04:04:03;27.13;;;12.10;;
6131;SDS011;3097;42.692;23.278;2023-02-28T04:06:30;26.33;;;12.50;;
6131;SDS011;3097;42.692;23.278;2023-02-28T04:08:57;34.43;;;13.93;;
6131;SDS011;3097;42.692;23.278;2023-02-28T04:13:59;26.03;;;11.70;;
6131;SDS011;3097;42.692;23.278;2023-02-28T04:16:25;30.77;;;13.87;;
6131;SDS011;3097;42.692;23.278;2023-02-28T04:18:50;31.37;;;13.20;;
6131;SDS011;3097;42.692;23.278;2023-02-28T04:21:16;25.27;;;11.30;;
6131;SDS011;3097;42.692;23.278;2023-02-28T04:23:45;25.27;;;11.97;;
6131;SDS011;3097;42.692;23.278;2023-02-28T04:26:11;27.53;;;11.87;;
6131;SDS011;3097;42.692;23.278;2023-02-28T04:28:37;30.93;;;12.33;;
6131;SDS011;3097;42.692;23.278;2023-02-28T04:31:04;28.10;;;12.03;;
6131;SDS011;3097;42.692;23.278;2023-02-28T04:33:30;24.47;;;10.63;;
6131;SDS011;3097;42.692;23.278;2023-02-28T04:36:01;20.93;;;9.23;;
6131;SDS011;3097;42.692;23.278;2023-02-28T04:38:29;21.23;;;10.07;;
6131;SDS011;3097;42.692;23.278;2023-02-28T04:40:57;20.70;;;9.77;;
6131;SDS011;3097;42.692;23.278;2023-02-28T04:43:24;19.77;;;9.47;;
6131;SDS011;3097;42.692;23.278;2023-02-28T04:45:51;17.83;;;10.03;;
6131;SDS011;3097;42.692;23.278;2023-02-28T04:48:16;19.00;;;9.70;;
6131;SDS011;3097;42.692;23.278;2023-02-28T04:50:42;21.13;;;10.10;;
6131;SDS011;3097;42.692;23.278;2023-02-28T04:53:07;22.87;;;10.27;;
6131;SDS011;3097;42.692;23.278;2023-02-28T04:55:33;21.57;;;12.00;;
6131;SDS011;3097;42.692;23.278;2023-02-28T04:57:59;25.70;;;11.77;;
6131;SDS011;3097;42.692;23.278;2023-02-28T05:00:25;24.77;;;11.60;;
6131;SDS011;3097;42.692;23.278;2023-02-28T05:02:50;25.50;;;12.03;;
6131;SDS011;3097;42.692;23.278;2023-02-28T05:05:16;23.97;;;11.67;;
6131;SDS011;3097;42.692;23.278;2023-02-28T05:07:43;25.43;;;12.00;;
6131;SDS011;3097;42.692;23.278;2023-02-28T05:10:09;29.97;;;12.17;;
6131;SDS011;3097;42.692;23.278;2023-02-28T05:12:35;29.07;;;13.30;;
6131;SDS011;3097;42.692;23.278;2023-02-28T05:15:01;30.13;;;13.17;;
6131;SDS011;3097;42.692;23.278;2023-02-28T05:17:27;32.07;;;12.43;;
6131;SDS011;3097;42.692;23.278;2023-02-28T05:19:53;31.23;;;12.37;;
6131;SDS011;3097;42.692;23.278;2023-02-28T05:22:18;26.40;;;12.33;;
6131;SDS011;3097;42.692;23.278;2023-02-28T05:24:44;30.97;;;14.60;;
6131;SDS011;3097;42.692;23.278;2023-02-28T05:27:10;31.07;;;14.37;;
6131;SDS011;3097;42.692;23.278;2023-02-28T05:29:35;29.90;;;13.97;;
6131;SDS011;3097;42.692;23.278;2023-02-28T05:32:07;37.53;;;15.27;;
6131;SDS011;3097;42.692;23.278;2023-02-28T05:34:34;37.10;;;15.50;;
6131;SDS011;3097;42.692;23.278;2023-02-28T05:37:01;35.57;;;15.13;;
6131;SDS011;3097;42.692;23.278;2023-02-28T05:39:27;37.90;;;14.90;;
6131;SDS011;3097;42.692;23.278;2023-02-28T05:41:52;32.60;;;14.97;;
6131;SDS011;3097;42.692;23.278;2023-02-28T05:44:18;35.80;;;15.17;;
6131;SDS011;3097;42.692;23.278;2023-02-28T05:46:43;40.20;;;16.03;;
6131;SDS011;3097;42.692;23.278;2023-02-28T05:49:08;39.27;;;16.37;;
6131;SDS011;3097;42.692;23.278;2023-02-28T05:51:34;36.20;;;15.93;;
6131;SDS011;3097;42.692;23.278;2023-02-28T05:54:01;41.50;;;15.77;;
6131;SDS011;3097;42.692;23.278;2023-02-28T05:56:27;35.77;;;15.23;;
6131;SDS011;3097;42.692;23.278;2023-02-28T05:58:53;35.43;;;15.23;;
6131;SDS011;3097;42.692;23.278;2023-02-28T06:01:20;34.13;;;14.73;;
6131;SDS011;3097;42.692;23.278;2023-02-28T06:04:05;30.80;;;13.53;;
6131;SDS011;3097;42.692;23.278;2023-02-28T06:06:32;32.20;;;14.17;;
6131;SDS011;3097;42.692;23.278;2023-02-28T06:09:02;35.63;;;14.20;;
6131;SDS011;3097;42.692;23.278;2023-02-28T06:11:28;35.87;;;14.43;;
6131;SDS011;3097;42.692;23.278;2023-02-28T06:13:54;32.27;;;15.30;;
6131;SDS011;3097;42.692;23.278;2023-02-28T06:16:21;42.63;;;17.03;;
6131;SDS011;3097;42.692;23.278;2023-02-28T06:18:48;43.33;;;18.03;;
6131;SDS011;3097;42.692;23.278;2023-02-28T06:21:13;37.03;;;15.83;;
6131;SDS011;3097;42.692;23.278;2023-02-28T06:23:39;38.20;;;16.47;;
6131;SDS011;3097;42.692;23.278;2023-02-28T06:26:04;44.40;;;15.87;;
6131;SDS011;3097;42.692;23.278;2023-02-28T06:28:30;40.23;;;16.23;;
6131;SDS011;3097;42.692;23.278;2023-02-28T06:30:55;37.33;;;16.87;;
6131;SDS011;3097;42.692;23.278;2023-02-28T06:33:21;40.67;;;16.40;;
6131;SDS011;3097;42.692;23.278;2023-02-28T06:35:47;40.67;;;18.13;;
6131;SDS011;3097;42.692;23.278;2023-02-28T06:38:15;37.23;;;16.47;;
6131;SDS011;3097;42.692;23.278;2023-02-28T06:40:40;39.97;;;16.70;;
6131;SDS011;3097;42.692;23.278;2023-02-28T06:43:05;40.47;;;18.20;;
6131;SDS011;3097;42.692;23.278;2023-02-28T06:45:31;37.80;;;16.87;;
6131;SDS011;3097;42.692;23.278;2023-02-28T06:47:57;40.97;;;17.07;;
6131;SDS011;3097;42.692;23.278;2023-02-28T06:50:23;42.50;;;17.53;;
6131;SDS011;3097;42.692;23.278;2023-02-28T06:52:49;40.77;;;18.10;;
6131;SDS011;3097;42.692;23.278;2023-02-28T06:55:18;47.27;;;18.13;;
6131;SDS011;3097;42.692;23.278;2023-02-28T06:57:44;51.60;;;19.23;;
6131;SDS011;3097;42.692;23.278;2023-02-28T07:00:09;44.57;;;18.17;;
6131;SDS011;3097;42.692;23.278;2023-02-28T07:02:36;39.93;;;17.77;;
6131;SDS011;3097;42.692;23.278;2023-02-28T07:05:03;37.60;;;17.80;;
6131;SDS011;3097;42.692;23.278;2023-02-28T07:07:29;42.53;;;17.47;;
6131;SDS011;3097;42.692;23.278;2023-02-28T07:09:54;44.70;;;19.03;;
6131;SDS011;3097;42.692;23.278;2023-02-28T07:12:20;42.87;;;18.87;;
6131;SDS011;3097;42.692;23.278;2023-02-28T07:14:46;45.33;;;19.17;;
6131;SDS011;3097;42.692;23.278;2023-02-28T07:17:11;47.67;;;20.00;;
6131;SDS011;3097;42.692;23.278;2023-02-28T07:19:40;46.30;;;19.87;;
6131;SDS011;3097;42.692;23.278;2023-02-28T07:22:05;46.43;;;20.13;;
6131;SDS011;3097;42.692;23.278;2023-02-28T07:24:32;48.83;;;20.10;;
6131;SDS011;3097;42.692;23.278;2023-02-28T07:26:57;48.53;;;20.43;;
6131;SDS011;3097;42.692;23.278;2023-02-28T07:29:22;53.03;;;21.93;;
6131;SDS011;3097;42.692;23.278;2023-02-28T07:31:48;49.33;;;21.50;;
6131;SDS011;3097;42.692;23.278;2023-02-28T07:34:15;54.73;;;21.03;;
6131;SDS011;3097;42.692;23.278;2023-02-28T07:36:41;45.80;;;19.60;;
6131;SDS011;3097;42.692;23.278;2023-02-28T07:39:06;54.53;;;20.83;;
6131;SDS011;3097;42.692;23.278;2023-02-28T07:41:34;45.77;;;21.03;;
6131;SDS011;3097;42.692;23.278;2023-02-28T07:44:02;42.60;;;19.33;;
6131;SDS011;3097;42.692;23.278;2023-02-28T07:46:28;42.97;;;19.17;;
6131;SDS011;3097;42.692;23.278;2023-02-28T07:48:59;45.27;;;19.07;;
6131;SDS011;3097;42.692;23.278;2023-02-28T07:51:25;47.97;;;20.57;;
6131;SDS011;3097;42.692;23.278;2023-02-28T07:53:51;50.57;;;21.47;;
6131;SDS011;3097;42.692;23.278;2023-02-28T07:56:16;50.47;;;21.67;;
6131;SDS011;3097;42.692;23.278;2023-02-28T07:58:41;57.13;;;24.63;;
6131;SDS011;3097;42.692;23.278;2023-02-28T08:01:07;59.60;;;26.27;;
6131;SDS011;3097;42.692;23.278;2023-02-28T08:03:34;53.33;;;23.57;;
6131;SDS011;3097;42.692;23.278;2023-02-28T08:06:04;49.30;;;22.33;;
6131;SDS011;3097;42.692;23.278;2023-02-28T08:08:31;46.93;;;22.13;;
6131;SDS011;3097;42.692;23.278;2023-02-28T08:11:00;47.43;;;22.40;;
6131;SDS011;3097;42.692;23.278;2023-02-28T08:13:27;48.87;;;22.30;;
6131;SDS011;3097;42.692;23.278;2023-02-28T08:15:54;54.57;;;24.80;;
6131;SDS011;3097;42.692;23.278;2023-02-28T08:18:20;59.43;;;25.83;;
6131;SDS011;3097;42.692;23.278;2023-02-28T08:20:45;62.20;;;27.33;;
6131;SDS011;3097;42.692;23.278;2023-02-28T08:23:11;61.50;;;27.00;;
6131;SDS011;3097;42.692;23.278;2023-02-28T08:25:36;51.90;;;22.97;;
6131;SDS011;3097;42.692;23.278;2023-02-28T08:28:02;52.47;;;21.87;;
6131;SDS011;3097;42.692;23.278;2023-02-28T08:30:27;44.13;;;20.67;;
6131;SDS011;3097;42.692;23.278;2023-02-28T08:32:53;43.10;;;21.97;;
6131;SDS011;3097;42.692;23.278;2023-02-28T08:35:19;47.93;;;23.27;;
6131;SDS011;3097;42.692;23.278;2023-02-28T08:37:44;55.03;;;24.10;;
6131;SDS011;3097;42.692;23.278;2023-02-28T08:40:12;52.47;;;24.20;;
6131;SDS011;3097;42.692;23.278;2023-02-28T08:42:43;55.37;;;23.07;;
6131;SDS011;3097;42.692;23.278;2023-02-28T08:45:12;52.27;;;24.30;;
6131;SDS011;3097;42.692;23.278;2023-02-28T08:47:39;46.83;;;22.17;;
6131;SDS011;3097;42.692;23.278;2023-02-28T08:50:05;53.67;;;22.93;;
6131;SDS011;3097;42.692;23.278;2023-02-28T08:52:31;66.80;;;30.87;;
6131;SDS011;3097;42.692;23.278;2023-02-28T08:54:56;81.73;;;35.30;;
6131;SDS011;3097;42.692;23.278;2023-02-28T08:57:23;69.60;;;26.87;;
6131;SDS011;3097;42.692;23.278;2023-02-28T08:59:51;55.70;;;25.17;;
6131;SDS011;3097;42.692;23.278;2023-02-28T09:02:16;56.40;;;23.57;;
6131;SDS011;3097;42.692;23.278;2023-02-28T09:04:42;55.83;;;24.00;;
6131;SDS011;3097;42.692;23.278;2023-02-28T09:07:10;58.20;;;24.10;;
6131;SDS011;3097;42.692;23.278;2023-02-28T09:09:36;54.40;;;23.60;;
6131;SDS011;3097;42.692;23.278;2023-02-28T09:12:01;56.77;;;23.13;;
6131;SDS011;3097;42.692;23.278;2023-02-28T09:14:27;49.53;;;21.83;;
6131;SDS011;3097;42.692;23.278;2023-02-28T09:16:52;45.13;;;19.87;;
6131;SDS011;3097;42.692;23.278;2023-02-28T09:19:18;44.07;;;20.27;;
6131;SDS011;3097;42.692;23.278;2023-02-28T09:21:43;48.67;;;22.47;;
6131;SDS011;3097;42.692;23.278;2023-02-28T09:24:09;46.27;;;20.30;;
6131;SDS011;3097;42.692;23.278;2023-02-28T09:26:36;49.50;;;20.33;;
6131;SDS011;3097;42.692;23.278;2023-02-28T09:29:02;49.63;;;23.20;;
6131;SDS011;3097;42.692;23.278;2023-02-28T09:31:28;50.80;;;23.13;;
6131;SDS011;3097;42.692;23.278;2023-02-28T09:33:55;67.10;;;28.17;;
6131;SDS011;3097;42.692;23.278;2023-02-28T09:36:22;62.13;;;29.13;;
6131;SDS011;3097;42.692;23.278;2023-02-28T09:38:49;66.10;;;30.23;;
6131;SDS011;3097;42.692;23.278;2023-02-28T09:41:21;66.37;;;26.53;;
6131;SDS011;3097;42.692;23.278;2023-02-28T09:43:51;53.07;;;24.63;;
6131;SDS011;3097;42.692;23.278;2023-02-28T09:49:23;55.07;;;25.20;;
6131;SDS011;3097;42.692;23.278;2023-02-28T09:52:00;49.17;;;21.83;;
6131;SDS011;3097;42.692;23.278;2023-02-28T09:54:29;42.77;;;21.33;;
6131;SDS011;3097;42.692;23.278;2023-02-28T09:56:58;47.30;;;23.30;;
6131;SDS011;3097;42.692;23.278;2023-02-28T09:59:37;50.77;;;22.97;;
6131;SDS011;3097;42.692;23.278;2023-02-28T10:05:16;45.33;;;23.00;;
6131;SDS011;3097;42.692;23.278;2023-02-28T10:08:28;51.27;;;22.47;;
6131;SDS011;3097;42.692;23.278;2023-02-28T10:10:45;48.10;;;23.07;;
6131;SDS011;3097;42.692;23.278;2023-02-28T10:13:19;54.13;;;24.77;;
6131;SDS011;3097;42.692;23.278;2023-02-28T10:15:50;59.67;;;26.73;;
6131;SDS011;3097;42.692;23.278;2023-02-28T10:18:22;53.37;;;26.93;;
6131;SDS011;3097;42.692;23.278;2023-02-28T10:20:52;68.57;;;28.40;;
6131;SDS011;3097;42.692;23.278;2023-02-28T10:23:25;69.93;;;29.07;;
6131;SDS011;3097;42.692;23.278;2023-02-28T10:26:00;64.37;;;28.70;;
6131;SDS011;3097;42.692;23.278;2023-02-28T10:28:35;50.13;;;22.87;;
6131;SDS011;3097;42.692;23.278;2023-02-28T10:31:00;44.40;;;18.83;;
6131;SDS011;3097;42.692;23.278;2023-02-28T10:33:28;40.80;;;19.03;;
6131;SDS011;3097;42.692;23.278;2023-02-28T10:35:56;39.40;;;19.00;;
6131;SDS011;3097;42.692;23.278;2023-02-28T10:38:26;32.97;;;14.93;;
6131;SDS011;3097;42.692;23.278;2023-02-28T10:41:03;18.97;;;9.57;;
6131;SDS011;3097;42.692;23.278;2023-02-28T10:43:29;23.00;;;10.83;;
6131;SDS011;3097;42.692;23.278;2023-02-28T10:51:08;18.23;;;10.43;;
6131;SDS011;3097;42.692;23.278;2023-02-28T10:53:45;15.80;;;8.60;;
6131;SDS011;3097;42.692;23.278;2023-02-28T10:56:20;18.53;;;8.77;;
6131;SDS011;3097;42.692;23.278;2023-02-28T10:58:57;16.53;;;8.00;;
6131;SDS011;3097;42.692;23.278;2023-02-28T11:04:00;22.43;;;9.77;;
6131;SDS011;3097;42.692;23.278;2023-02-28T11:06:26;19.33;;;8.97;;
6131;SDS011;3097;42.692;23.278;2023-02-28T11:08:56;18.50;;;8.90;;
6131;SDS011;3097;42.692;23.278;2023-02-28T11:11:25;20.83;;;9.03;;
6131;SDS011;3097;42.692;23.278;2023-02-28T11:13:54;20.23;;;9.37;;
6131;SDS011;3097;42.692;23.278;2023-02-28T11:16:22;15.43;;;7.93;;
6131;SDS011;3097;42.692;23.278;2023-02-28T11:18:58;17.27;;;9.50;;
6131;SDS011;3097;42.692;23.278;2023-02-28T11:21:45;20.30;;;9.20;;
6131;SDS011;3097;42.692;23.278;2023-02-28T11:24:26;16.13;;;9.07;;
6131;SDS011;3097;42.692;23.278;2023-02-28T11:26:52;17.97;;;9.23;;
6131;SDS011;3097;42.692;23.278;2023-02-28T11:29:22;15.83;;;9.03;;
6131;SDS011;3097;42.692;23.278;2023-02-28T11:34:37;15.87;;;9.07;;
6131;SDS011;3097;42.692;23.278;2023-02-28T11:37:05;21.37;;;9.17;;
6131;SDS011;3097;42.692;23.278;2023-02-28T11:39:35;17.33;;;8.97;;
6131;SDS011;3097;42.692;23.278;2023-02-28T11:49:51;17.30;;;8.63;;
6131;SDS011;3097;42.692;23.278;2023-02-28T12:00:43;25.90;;;8.90;;
6131;SDS011;3097;42.692;23.278;2023-02-28T12:03:26;15.60;;;9.07;;
6131;SDS011;3097;42.692;23.278;2023-02-28T12:08:44;18.77;;;10.50;;
6131;SDS011;3097;42.692;23.278;2023-02-28T12:14:29;34.47;;;10.37;;
6131;SDS011;3097;42.692;23.278;2023-02-28T12:17:19;25.67;;;9.93;;
6131;SDS011;3097;42.692;23.278;2023-02-28T12:20:02;23.63;;;9.70;;
6131;SDS011;3097;42.692;23.278;2023-02-28T12:22:49;14.60;;;8.13;;
6131;SDS011;3097;42.692;23.278;2023-02-28T12:28:01;23.03;;;9.27;;
6131;SDS011;3097;42.692;23.278;2023-02-28T12:30:32;17.17;;;8.90;;
6131;SDS011;3097;42.692;23.278;2023-02-28T12:33:02;13.60;;;8.70;;
6131;SDS011;3097;42.692;23.278;2023-02-28T12:35:34;26.07;;;9.67;;
6131;SDS011;3097;42.692;23.278;2023-02-28T12:38:22;17.13;;;8.93;;
6131;SDS011;3097;42.692;23.278;2023-02-28T12:44:05;16.30;;;8.63;;
6131;SDS011;3097;42.692;23.278;2023-02-28T12:46:58;17.00;;;8.33;;
6131;SDS011;3097;42.692;23.278;2023-02-28T12:52:03;18.93;;;9.03;;
6131;SDS011;3097;42.692;23.278;2023-02-28T12:54:51;21.77;;;10.43;;
6131;SDS011;3097;42.692;23.278;2023-02-28T13:00:04;25.20;;;9.20;;
6131;SDS011;3097;42.692;23.278;2023-02-28T13:10:49;11.90;;;7.10;;
6131;SDS011;3097;42.692;23.278;2023-02-28T13:13:20;16.60;;;8.17;;
6131;SDS011;3097;42.692;23.278;2023-02-28T13:15:59;18.37;;;7.20;;
6131;SDS011;3097;42.692;23.278;2023-02-28T13:18:31;17.37;;;7.43;;
6131;SDS011;3097;42.692;23.278;2023-02-28T13:26:28;17.47;;;7.23;;
6131;SDS011;3097;42.692;23.278;2023-02-28T13:34:27;14.90;;;7.80;;
6131;SDS011;3097;42.692;23.278;2023-02-28T13:37:20;20.17;;;7.80;;
6131;SDS011;3097;42.692;23.278;2023-02-28T13:39:57;12.77;;;6.67;;
6131;SDS011;3097;42.692;23.278;2023-02-28T13:42:48;22.07;;;7.83;;
6131;SDS011;3097;42.692;23.278;2023-02-28T13:45:23;14.33;;;7.70;;
6131;SDS011;3097;42.692;23.278;2023-02-28T13:50:29;19.63;;;7.40;;
6131;SDS011;3097;42.692;23.278;2023-02-28T13:59:01;14.67;;;6.87;;
6131;SDS011;3097;42.692;23.278;2023-02-28T14:04:58;21.57;;;7.70;;
6131;SDS011;3097;42.692;23.278;2023-02-28T14:07:38;12.20;;;7.20;;
6131;SDS011;3097;42.692;23.278;2023-02-28T14:10:15;16.07;;;6.73;;
6131;SDS011;3097;42.692;23.278;2023-02-28T14:12:52;14.07;;;6.93;;
6131;SDS011;3097;42.692;23.278;2023-02-28T14:17:59;14.77;;;6.87;;
6131;SDS011;3097;42.692;23.278;2023-02-28T14:20:29;12.33;;;6.77;;
6131;SDS011;3097;42.692;23.278;2023-02-28T14:23:14;11.63;;;6.57;;
6131;SDS011;3097;42.692;23.278;2023-02-28T14:26:05;14.97;;;7.20;;
6131;SDS011;3097;42.692;23.278;2023-02-28T14:31:37;14.70;;;7.13;;
6131;SDS011;3097;42.692;23.278;2023-02-28T14:34:17;12.43;;;6.67;;
6131;SDS011;3097;42.692;23.278;2023-02-28T14:36:47;12.47;;;7.43;;
6131;SDS011;3097;42.692;23.278;2023-02-28T14:39:14;15.23;;;7.43;;
6131;SDS011;3097;42.692;23.278;2023-02-28T14:41:42;13.43;;;7.40;;
6131;SDS011;3097;42.692;23.278;2023-02-28T14:44:27;13.20;;;6.87;;
6131;SDS011;3097;42.692;23.278;2023-02-28T14:46:53;16.30;;;7.40;;
6131;SDS011;3097;42.692;23.278;2023-02-28T14:49:23;15.63;;;7.53;;
6131;SDS011;3097;42.692;23.278;2023-02-28T14:52:03;13.90;;;6.87;;
6131;SDS011;3097;42.692;23.278;2023-02-28T14:54:40;15.63;;;6.97;;
6131;SDS011;3097;42.692;23.278;2023-02-28T14:57:11;15.87;;;7.53;;
6131;SDS011;3097;42.692;23.278;2023-02-28T14:59:56;14.63;;;7.00;;
6131;SDS011;3097;42.692;23.278;2023-02-28T15:02:24;15.27;;;7.63;;
6131;SDS011;3097;42.692;23.278;2023-02-28T15:05:00;15.93;;;7.53;;
6131;SDS011;3097;42.692;23.278;2023-02-28T15:07:35;17.30;;;7.83;;
6131;SDS011;3097;42.692;23.278;2023-02-28T15:10:13;16.10;;;7.40;;
6131;SDS011;3097;42.692;23.278;2023-02-28T15:12:39;12.37;;;6.90;;
6131;SDS011;3097;42.692;23.278;2023-02-28T15:15:06;12.03;;;7.00;;
6131;SDS011;3097;42.692;23.278;2023-02-28T15:17:39;16.37;;;6.93;;
6131;SDS011;3097;42.692;23.278;2023-02-28T15:20:05;15.37;;;7.43;;
6131;SDS011;3097;42.692;23.278;2023-02-28T15:22:36;13.93;;;6.90;;
6131;SDS011;3097;42.692;23.278;2023-02-28T15:25:03;11.07;;;6.93;;
6131;SDS011;3097;42.692;23.278;2023-02-28T15:27:31;13.47;;;6.77;;
6131;SDS011;3097;42.692;23.278;2023-02-28T15:29:59;13.47;;;7.57;;
6131;SDS011;3097;42.692;23.278;2023-02-28T15:32:31;12.90;;;6.53;;
6131;SDS011;3097;42.692;23.278;2023-02-28T15:35:17;14.10;;;6.80;;
6131;SDS011;3097;42.692;23.278;2023-02-28T15:38:12;12.07;;;6.27;;
6131;SDS011;3097;42.692;23.278;2023-02-28T15:40:37;15.80;;;6.77;;
6131;SDS011;3097;42.692;23.278;2023-02-28T15:43:07;20.97;;;6.80;;
6131;SDS011;3097;42.692;23.278;2023-02-28T15:45:38;16.40;;;6.83;;
6131;SDS011;3097;42.692;23.278;2023-02-28T15:48:17;14.97;;;7.40;;
6131;SDS011;3097;42.692;23.278;2023-02-28T15:50:43;16.20;;;7.23;;
6131;SDS011;3097;42.692;23.278;2023-02-28T15:53:16;14.57;;;7.13;;
6131;SDS011;3097;42.692;23.278;2023-02-28T15:55:44;14.10;;;7.10;;
6131;SDS011;3097;42.692;23.278;2023-02-28T15:58:11;13.07;;;7.40;;
6131;SDS011;3097;42.692;23.278;2023-02-28T16:00:38;11.27;;;6.57;;
6131;SDS011;3097;42.692;23.278;2023-02-28T16:03:22;9.73;;;6.80;;
6131;SDS011;3097;42.692;23.278;2023-02-28T16:06:07;16.53;;;7.03;;
6131;SDS011;3097;42.692;23.278;2023-02-28T16:08:33;15.83;;;7.20;;
6131;SDS011;3097;42.692;23.278;2023-02-28T16:10:59;11.73;;;7.87;;
6131;SDS011;3097;42.692;23.278;2023-02-28T16:13:24;12.63;;;8.17;;
6131;SDS011;3097;42.692;23.278;2023-02-28T16:15:50;12.27;;;7.70;;
6131;SDS011;3097;42.692;23.278;2023-02-28T16:18:16;18.37;;;9.53;;
6131;SDS011;3097;42.692;23.278;2023-02-28T16:20:41;25.13;;;12.27;;
6131;SDS011;3097;42.692;23.278;2023-02-28T16:23:09;19.40;;;10.73;;
6131;SDS011;3097;42.692;23.278;2023-02-28T16:25:36;25.40;;;11.53;;
6131;SDS011;3097;42.692;23.278;2023-02-28T16:28:05;21.90;;;11.07;;
6131;SDS011;3097;42.692;23.278;2023-02-28T16:30:56;15.30;;;9.03;;
6131;SDS011;3097;42.692;23.278;2023-02-28T16:33:21;16.67;;;8.90;;
6131;SDS011;3097;42.692;23.278;2023-02-28T16:35:47;15.80;;;8.33;;
6131;SDS011;3097;42.692;23.278;2023-02-28T16:38:13;11.83;;;7.27;;
6131;SDS011;3097;42.692;23.278;2023-02-28T16:40:39;12.80;;;7.37;;
6131;SDS011;3097;42.692;23.278;2023-02-28T16:43:05;11.23;;;6.87;;
6131;SDS011;3097;42.692;23.278;2023-02-28T16:45:35;8.93;;;6.67;;
6131;SDS011;3097;42.692;23.278;2023-02-28T16:48:00;9.70;;;6.37;;
6131;SDS011;3097;42.692;23.278;2023-02-28T16:50:27;9.07;;;6.37;;
6131;SDS011;3097;42.692;23.278;2023-02-28T16:52:54;9.77;;;5.73;;
6131;SDS011;3097;42.692;23.278;2023-02-28T16:55:21;8.47;;;5.93;;
6131;SDS011;3097;42.692;23.278;2023-02-28T16:57:49;11.90;;;6.73;;